KAPFKEYW

Guest
Details From KAPF - Naples Muni
To KEYW - Key West Intl
Flight Number -
Tags generated
Created
Modified
Stats Distance 96 nm / 178 km
Max Altitude 7,300 ft / 2,225 m
Waypoints 5
Social Downloads 1
Likes 0
Share VATSIM

Download

Looking for another format? Having issues loading an existing format? Contact us
Advertisement - Login to hide

Notes

Basic altitude profile: - Ascent Rate: 700ft/min - Ascent Speed: 90kts - Cruise Altitude: 5000ft - Cruise Speed: 100kts - Descent Rate: 700ft/min - Descent Speed: 90kts Options: - Use NATs: yes - Use PACOTS: yes - Use low airways: yes - Use high airways: yes

Route

KAPF MARCI V225 STING KEYW

ID Type Via Altitude Latitude Longitude Leg Dist Tot Dist Heading (true) Name
O KAPF APT - 0 ft / 0 m 26.15161˚ -81.77685˚ - 0 nm - Naples Muni
MARCI FIX - 5,500 ft / 1,676 m 25.89107˚ -81.78399˚ 15 nm 15 nm 181° / 181° -
RIGOR FIX V225 (AWY-LO) 7,300 ft / 2,225 m 25.12269˚ -81.79287˚ 46 nm 61 nm 181° / 181° -
STING FIX V225 (AWY-LO) 4,200 ft / 1,280 m 24.88158˚ -81.79631˚ 14 nm 76 nm 181° / 181° -
O KEYW APT - 0 ft / 0 m 24.55612˚ -81.75955˚ 19 nm 95 nm 174° / 174° Key West Intl

Altitude Profile

Advertisement - Login to hide

KAPF

Details ICAO KAPF (APF)
Name Naples Muni
Region United States
Timezone America/New_York (UTC-5.0)
Stats Elevation 8 ft / 2 m (AMSL)
Location 26.151612° -81.776854°
Runways 3
Magnetic Variation 5.769° W

METAR

KAPF 122153Z 29013G20KT 10SM FEW039 22/14 A2998 RMK AO2 SLP149 T02170139

Decode

TAF

TAF AMD KAPF 122102Z 1221/1318 28015G21KT P6SM FEW040 FM130000 30009KT P6SM FEW040 FM130500 33008KT P6SM SKC FM131000 01007KT P6SM SKC

Decode

Departure Runways

ID Width Length Bearing (true) Bearing (mag) Surface Threshold Offset Overrun Length
05 150 ft / 46 m 5,296 ft / 1,614 m 44.07° 49.84° Asphalt 290 ft / 88 m 0 ft / 0 m
05R 100 ft / 30 m 1,833 ft / 559 m 44.02° 49.79° Grass 0 ft / 0 m 0 ft / 0 m
14 100 ft / 30 m 5,006 ft / 1,526 m 134.39° 140.16° Asphalt 130 ft / 40 m 0 ft / 0 m
23 150 ft / 46 m 5,296 ft / 1,614 m 224.08° 229.85° Asphalt 0 ft / 0 m 0 ft / 0 m
23L 100 ft / 30 m 1,833 ft / 559 m 224.03° 229.80° Grass 0 ft / 0 m 0 ft / 0 m
32 100 ft / 30 m 5,006 ft / 1,526 m 314.39° 320.16° Asphalt 450 ft / 137 m 0 ft / 0 m

KEYW

Details ICAO KEYW (EYW)
Name Key West Intl
Region United States
Timezone America/New_York (UTC-5.0)
Stats Elevation 2 ft / 1 m (AMSL)
Location 24.556124° -81.759546°
Runways 1
Magnetic Variation 5.544° W

METAR

KEYW 122153Z 30012KT 10SM CLR 22/14 A3001 RMK AO2 SLP163 T02220144 $

Decode

TAF

KEYW 121740Z 1218/1318 27005KT P6SM SCT045 FM130000 32012G17KT P6SM BKN050 FM131400 35010KT P6SM SCT020

Decode

Destination Runways

ID Width Length Bearing (true) Bearing (mag) Surface Threshold Offset Overrun Length
09 100 ft / 30 m 4,794 ft / 1,461 m 89.38° 94.92° Asphalt 151 ft / 46 m 0 ft / 0 m
27 100 ft / 30 m 4,794 ft / 1,461 m 269.39° 274.93° Asphalt 151 ft / 46 m 0 ft / 0 m

Popular Alternatives